sensor_id;sensor_type;location;lat;lon;timestamp;P1;durP1;ratioP1;P2;durP2;ratioP2
813;SDS011;389;48.710;9.392;2023-03-23T00:01:02;5.97;;;4.50;;
813;SDS011;389;48.710;9.392;2023-03-23T00:03:29;9.83;;;4.10;;
813;SDS011;389;48.710;9.392;2023-03-23T00:05:57;6.97;;;4.03;;
813;SDS011;389;48.710;9.392;2023-03-23T00:08:29;5.90;;;4.20;;
813;SDS011;389;48.710;9.392;2023-03-23T00:10:55;5.50;;;4.00;;
813;SDS011;389;48.710;9.392;2023-03-23T00:13:28;5.33;;;3.70;;
813;SDS011;389;48.710;9.392;2023-03-23T00:15:54;5.07;;;3.83;;
813;SDS011;389;48.710;9.392;2023-03-23T00:18:22;4.77;;;4.00;;
813;SDS011;389;48.710;9.392;2023-03-23T00:20:48;7.73;;;4.57;;
813;SDS011;389;48.710;9.392;2023-03-23T00:23:18;4.83;;;4.33;;
813;SDS011;389;48.710;9.392;2023-03-23T00:25:46;6.47;;;4.60;;
813;SDS011;389;48.710;9.392;2023-03-23T00:28:12;7.33;;;5.17;;
813;SDS011;389;48.710;9.392;2023-03-23T00:30:39;6.73;;;5.43;;
813;SDS011;389;48.710;9.392;2023-03-23T00:33:07;5.90;;;5.10;;
813;SDS011;389;48.710;9.392;2023-03-23T00:35:33;7.90;;;5.50;;
813;SDS011;389;48.710;9.392;2023-03-23T00:38:00;6.50;;;4.80;;
813;SDS011;389;48.710;9.392;2023-03-23T00:40:26;6.77;;;4.50;;
813;SDS011;389;48.710;9.392;2023-03-23T00:42:53;7.70;;;5.30;;
813;SDS011;389;48.710;9.392;2023-03-23T00:45:18;7.47;;;5.13;;
813;SDS011;389;48.710;9.392;2023-03-23T00:47:44;9.37;;;5.80;;
813;SDS011;389;48.710;9.392;2023-03-23T00:50:11;6.87;;;5.60;;
813;SDS011;389;48.710;9.392;2023-03-23T00:52:38;7.53;;;6.73;;
813;SDS011;389;48.710;9.392;2023-03-23T00:55:05;9.30;;;5.03;;
813;SDS011;389;48.710;9.392;2023-03-23T00:57:31;6.43;;;4.70;;
813;SDS011;389;48.710;9.392;2023-03-23T00:59:57;4.77;;;3.90;;
813;SDS011;389;48.710;9.392;2023-03-23T01:02:22;6.33;;;4.93;;
813;SDS011;389;48.710;9.392;2023-03-23T01:04:49;5.63;;;4.60;;
813;SDS011;389;48.710;9.392;2023-03-23T01:07:17;5.40;;;4.70;;
813;SDS011;389;48.710;9.392;2023-03-23T01:09:45;6.40;;;4.70;;
813;SDS011;389;48.710;9.392;2023-03-23T01:12:12;4.43;;;4.00;;
813;SDS011;389;48.710;9.392;2023-03-23T01:14:37;6.30;;;4.70;;
813;SDS011;389;48.710;9.392;2023-03-23T01:17:03;7.63;;;4.50;;
813;SDS011;389;48.710;9.392;2023-03-23T01:19:29;7.00;;;4.40;;
813;SDS011;389;48.710;9.392;2023-03-23T01:21:55;6.40;;;4.50;;
813;SDS011;389;48.710;9.392;2023-03-23T01:24:20;5.90;;;4.50;;
813;SDS011;389;48.710;9.392;2023-03-23T01:26:46;5.90;;;4.70;;
813;SDS011;389;48.710;9.392;2023-03-23T01:29:12;5.40;;;4.17;;
813;SDS011;389;48.710;9.392;2023-03-23T01:31:38;4.43;;;3.90;;
813;SDS011;389;48.710;9.392;2023-03-23T01:34:04;5.80;;;3.67;;
813;SDS011;389;48.710;9.392;2023-03-23T01:36:30;4.10;;;3.40;;
813;SDS011;389;48.710;9.392;2023-03-23T01:38:58;5.73;;;3.30;;
813;SDS011;389;48.710;9.392;2023-03-23T01:41:26;3.90;;;3.40;;
813;SDS011;389;48.710;9.392;2023-03-23T01:43:55;8.80;;;3.20;;
813;SDS011;389;48.710;9.392;2023-03-23T01:46:32;4.70;;;4.17;;
813;SDS011;389;48.710;9.392;2023-03-23T01:49:06;4.40;;;4.00;;
813;SDS011;389;48.710;9.392;2023-03-23T01:51:37;4.10;;;3.70;;
813;SDS011;389;48.710;9.392;2023-03-23T01:54:10;3.60;;;3.30;;
813;SDS011;389;48.710;9.392;2023-03-23T01:56:40;6.30;;;3.43;;
813;SDS011;389;48.710;9.392;2023-03-23T01:59:10;4.03;;;3.30;;
813;SDS011;389;48.710;9.392;2023-03-23T02:01:37;5.87;;;3.83;;
813;SDS011;389;48.710;9.392;2023-03-23T02:04:08;4.07;;;3.13;;
813;SDS011;389;48.710;9.392;2023-03-23T02:06:34;5.00;;;3.97;;
813;SDS011;389;48.710;9.392;2023-03-23T02:08:59;4.90;;;3.87;;
813;SDS011;389;48.710;9.392;2023-03-23T02:11:25;4.83;;;3.50;;
813;SDS011;389;48.710;9.392;2023-03-23T02:13:51;3.70;;;3.23;;
813;SDS011;389;48.710;9.392;2023-03-23T02:23:59;6.57;;;4.30;;
813;SDS011;389;48.710;9.392;2023-03-23T02:35:14;4.83;;;3.63;;
813;SDS011;389;48.710;9.392;2023-03-23T02:38:28;3.53;;;3.20;;
813;SDS011;389;48.710;9.392;2023-03-23T02:40:49;4.53;;;3.57;;
813;SDS011;389;48.710;9.392;2023-03-23T02:43:17;5.27;;;3.63;;
813;SDS011;389;48.710;9.392;2023-03-23T02:45:46;3.40;;;3.10;;
813;SDS011;389;48.710;9.392;2023-03-23T02:48:14;10.43;;;3.70;;
813;SDS011;389;48.710;9.392;2023-03-23T02:50:44;4.00;;;3.60;;
813;SDS011;389;48.710;9.392;2023-03-23T02:53:13;5.47;;;4.40;;
813;SDS011;389;48.710;9.392;2023-03-23T02:55:41;4.13;;;3.60;;
813;SDS011;389;48.710;9.392;2023-03-23T02:58:09;4.93;;;3.90;;
813;SDS011;389;48.710;9.392;2023-03-23T03:00:36;5.33;;;4.40;;
813;SDS011;389;48.710;9.392;2023-03-23T03:03:03;7.80;;;4.73;;
813;SDS011;389;48.710;9.392;2023-03-23T03:05:38;5.13;;;3.50;;
813;SDS011;389;48.710;9.392;2023-03-23T04:18:01;4.87;;;4.17;;
813;SDS011;389;48.710;9.392;2023-03-23T04:20:28;4.60;;;4.17;;
813;SDS011;389;48.710;9.392;2023-03-23T04:22:54;4.80;;;3.87;;
813;SDS011;389;48.710;9.392;2023-03-23T04:25:20;6.70;;;4.70;;
813;SDS011;389;48.710;9.392;2023-03-23T04:27:46;7.37;;;4.07;;
813;SDS011;389;48.710;9.392;2023-03-23T04:30:18;4.77;;;4.00;;
813;SDS011;389;48.710;9.392;2023-03-23T04:32:48;5.67;;;4.23;;
813;SDS011;389;48.710;9.392;2023-03-23T04:35:21;10.80;;;4.40;;
813;SDS011;389;48.710;9.392;2023-03-23T04:37:51;3.50;;;3.20;;
813;SDS011;389;48.710;9.392;2023-03-23T04:40:17;8.63;;;4.03;;
813;SDS011;389;48.710;9.392;2023-03-23T04:42:43;4.93;;;4.30;;
813;SDS011;389;48.710;9.392;2023-03-23T04:45:14;6.93;;;3.53;;
813;SDS011;389;48.710;9.392;2023-03-23T04:47:46;4.63;;;3.73;;
813;SDS011;389;48.710;9.392;2023-03-23T04:50:22;8.73;;;4.30;;
813;SDS011;389;48.710;9.392;2023-03-23T04:52:52;6.63;;;4.13;;
813;SDS011;389;48.710;9.392;2023-03-23T04:55:19;3.67;;;3.37;;
813;SDS011;389;48.710;9.392;2023-03-23T04:57:48;4.17;;;3.47;;
813;SDS011;389;48.710;9.392;2023-03-23T05:00:14;3.77;;;3.07;;
813;SDS011;389;48.710;9.392;2023-03-23T05:02:41;4.53;;;4.10;;
813;SDS011;389;48.710;9.392;2023-03-23T05:05:09;5.70;;;4.33;;
813;SDS011;389;48.710;9.392;2023-03-23T05:07:40;4.70;;;4.10;;
813;SDS011;389;48.710;9.392;2023-03-23T05:10:07;4.73;;;4.23;;
813;SDS011;389;48.710;9.392;2023-03-23T05:12:35;4.80;;;4.07;;
813;SDS011;389;48.710;9.392;2023-03-23T05:15:00;5.93;;;4.93;;
813;SDS011;389;48.710;9.392;2023-03-23T05:17:26;4.87;;;3.37;;
813;SDS011;389;48.710;9.392;2023-03-23T05:19:52;4.50;;;3.80;;
813;SDS011;389;48.710;9.392;2023-03-23T05:22:18;3.40;;;3.10;;
813;SDS011;389;48.710;9.392;2023-03-23T05:24:45;3.07;;;2.70;;
813;SDS011;389;48.710;9.392;2023-03-23T05:27:16;4.77;;;3.10;;
813;SDS011;389;48.710;9.392;2023-03-23T05:29:44;3.50;;;2.63;;
813;SDS011;389;48.710;9.392;2023-03-23T05:32:14;3.10;;;2.80;;
813;SDS011;389;48.710;9.392;2023-03-23T05:34:44;3.80;;;2.77;;
813;SDS011;389;48.710;9.392;2023-03-23T05:37:11;6.03;;;3.47;;
813;SDS011;389;48.710;9.392;2023-03-23T05:39:37;4.33;;;3.70;;
813;SDS011;389;48.710;9.392;2023-03-23T05:42:03;4.37;;;3.07;;
813;SDS011;389;48.710;9.392;2023-03-23T05:44:29;3.87;;;3.47;;
813;SDS011;389;48.710;9.392;2023-03-23T05:46:55;4.20;;;3.50;;
813;SDS011;389;48.710;9.392;2023-03-23T05:49:21;5.30;;;3.53;;
813;SDS011;389;48.710;9.392;2023-03-23T05:51:47;4.80;;;3.33;;
813;SDS011;389;48.710;9.392;2023-03-23T05:54:15;3.63;;;2.93;;
813;SDS011;389;48.710;9.392;2023-03-23T05:56:41;3.90;;;3.50;;
813;SDS011;389;48.710;9.392;2023-03-23T05:59:07;3.43;;;2.87;;
813;SDS011;389;48.710;9.392;2023-03-23T06:01:35;3.30;;;3.00;;
813;SDS011;389;48.710;9.392;2023-03-23T06:04:04;4.10;;;3.43;;
813;SDS011;389;48.710;9.392;2023-03-23T06:06:29;4.10;;;3.00;;
813;SDS011;389;48.710;9.392;2023-03-23T06:08:57;3.40;;;3.10;;
813;SDS011;389;48.710;9.392;2023-03-23T06:11:23;3.70;;;3.17;;
813;SDS011;389;48.710;9.392;2023-03-23T06:13:49;3.73;;;3.20;;
813;SDS011;389;48.710;9.392;2023-03-23T06:16:15;4.00;;;3.10;;
813;SDS011;389;48.710;9.392;2023-03-23T06:18:41;3.57;;;3.27;;
813;SDS011;389;48.710;9.392;2023-03-23T06:21:08;3.20;;;2.93;;
813;SDS011;389;48.710;9.392;2023-03-23T06:23:35;3.90;;;3.30;;
813;SDS011;389;48.710;9.392;2023-03-23T06:26:03;3.57;;;2.93;;
813;SDS011;389;48.710;9.392;2023-03-23T06:28:30;5.30;;;3.60;;
813;SDS011;389;48.710;9.392;2023-03-23T06:31:00;3.83;;;3.40;;
813;SDS011;389;48.710;9.392;2023-03-23T06:33:35;4.37;;;3.97;;
813;SDS011;389;48.710;9.392;2023-03-23T06:36:05;5.90;;;3.80;;
813;SDS011;389;48.710;9.392;2023-03-23T06:38:48;8.53;;;3.73;;
813;SDS011;389;48.710;9.392;2023-03-23T06:41:22;5.73;;;4.03;;
813;SDS011;389;48.710;9.392;2023-03-23T06:43:50;4.43;;;3.70;;
813;SDS011;389;48.710;9.392;2023-03-23T06:46:16;7.40;;;5.10;;
813;SDS011;389;48.710;9.392;2023-03-23T06:48:42;4.80;;;3.50;;
813;SDS011;389;48.710;9.392;2023-03-23T06:51:08;5.00;;;4.40;;
813;SDS011;389;48.710;9.392;2023-03-23T06:53:33;5.03;;;4.10;;
813;SDS011;389;48.710;9.392;2023-03-23T06:55:59;5.87;;;4.00;;
813;SDS011;389;48.710;9.392;2023-03-23T06:58:25;5.80;;;4.00;;
813;SDS011;389;48.710;9.392;2023-03-23T07:00:55;6.30;;;4.80;;
813;SDS011;389;48.710;9.392;2023-03-23T07:03:24;6.13;;;3.40;;
813;SDS011;389;48.710;9.392;2023-03-23T07:05:51;5.83;;;3.63;;
813;SDS011;389;48.710;9.392;2023-03-23T07:08:16;4.20;;;3.60;;
813;SDS011;389;48.710;9.392;2023-03-23T07:10:42;4.07;;;3.70;;
813;SDS011;389;48.710;9.392;2023-03-23T07:13:08;4.77;;;4.30;;
813;SDS011;389;48.710;9.392;2023-03-23T07:15:34;6.57;;;4.20;;
813;SDS011;389;48.710;9.392;2023-03-23T07:18:00;8.20;;;4.83;;
813;SDS011;389;48.710;9.392;2023-03-23T07:20:26;7.77;;;5.30;;
813;SDS011;389;48.710;9.392;2023-03-23T07:22:53;10.07;;;5.90;;
813;SDS011;389;48.710;9.392;2023-03-23T07:25:29;8.00;;;5.50;;
813;SDS011;389;48.710;9.392;2023-03-23T07:28:03;14.43;;;6.13;;
813;SDS011;389;48.710;9.392;2023-03-23T07:30:29;14.57;;;5.97;;
813;SDS011;389;48.710;9.392;2023-03-23T07:33:03;7.63;;;5.17;;
813;SDS011;389;48.710;9.392;2023-03-23T07:35:32;11.40;;;5.30;;
813;SDS011;389;48.710;9.392;2023-03-23T07:38:01;10.00;;;6.13;;
813;SDS011;389;48.710;9.392;2023-03-23T07:40:27;11.97;;;5.60;;
813;SDS011;389;48.710;9.392;2023-03-23T07:42:59;18.40;;;5.73;;
813;SDS011;389;48.710;9.392;2023-03-23T07:45:46;9.97;;;6.33;;
813;SDS011;389;48.710;9.392;2023-03-23T07:48:14;9.37;;;5.60;;
813;SDS011;389;48.710;9.392;2023-03-23T07:50:40;11.07;;;6.80;;
813;SDS011;389;48.710;9.392;2023-03-23T07:53:06;11.83;;;5.73;;
813;SDS011;389;48.710;9.392;2023-03-23T07:55:32;15.43;;;5.77;;
813;SDS011;389;48.710;9.392;2023-03-23T07:57:58;15.43;;;6.57;;
813;SDS011;389;48.710;9.392;2023-03-23T08:00:24;10.80;;;5.20;;
813;SDS011;389;48.710;9.392;2023-03-23T08:02:54;8.97;;;5.73;;
813;SDS011;389;48.710;9.392;2023-03-23T08:05:23;20.33;;;6.00;;
813;SDS011;389;48.710;9.392;2023-03-23T08:07:51;9.63;;;5.77;;
813;SDS011;389;48.710;9.392;2023-03-23T08:10:19;9.20;;;6.27;;
813;SDS011;389;48.710;9.392;2023-03-23T08:12:49;10.13;;;5.87;;
813;SDS011;389;48.710;9.392;2023-03-23T08:15:20;10.30;;;5.87;;
813;SDS011;389;48.710;9.392;2023-03-23T08:17:47;7.30;;;5.00;;
813;SDS011;389;48.710;9.392;2023-03-23T08:20:13;10.83;;;6.00;;
813;SDS011;389;48.710;9.392;2023-03-23T08:22:40;12.50;;;6.00;;
813;SDS011;389;48.710;9.392;2023-03-23T08:25:08;9.80;;;6.00;;
813;SDS011;389;48.710;9.392;2023-03-23T08:27:35;7.33;;;5.73;;
813;SDS011;389;48.710;9.392;2023-03-23T08:30:00;9.40;;;5.20;;
813;SDS011;389;48.710;9.392;2023-03-23T08:32:27;9.10;;;5.13;;
813;SDS011;389;48.710;9.392;2023-03-23T08:34:53;7.93;;;5.83;;
813;SDS011;389;48.710;9.392;2023-03-23T08:37:18;9.50;;;6.23;;
813;SDS011;389;48.710;9.392;2023-03-23T08:39:44;5.70;;;5.00;;
813;SDS011;389;48.710;9.392;2023-03-23T08:42:10;11.33;;;6.00;;
813;SDS011;389;48.710;9.392;2023-03-23T08:44:36;6.90;;;3.80;;
813;SDS011;389;48.710;9.392;2023-03-23T08:47:02;4.70;;;4.10;;
813;SDS011;389;48.710;9.392;2023-03-23T08:49:29;4.50;;;3.63;;
813;SDS011;389;48.710;9.392;2023-03-23T08:51:57;3.67;;;3.17;;
813;SDS011;389;48.710;9.392;2023-03-23T08:54:23;2.53;;;2.30;;
813;SDS011;389;48.710;9.392;2023-03-23T08:56:49;4.83;;;2.67;;
813;SDS011;389;48.710;9.392;2023-03-23T08:59:14;3.50;;;2.40;;
813;SDS011;389;48.710;9.392;2023-03-23T09:01:40;2.20;;;2.00;;
813;SDS011;389;48.710;9.392;2023-03-23T09:04:06;2.17;;;2.00;;
813;SDS011;389;48.710;9.392;2023-03-23T09:06:34;4.07;;;1.90;;
813;SDS011;389;48.710;9.392;2023-03-23T09:09:00;10.60;;;2.20;;
813;SDS011;389;48.710;9.392;2023-03-23T09:11:27;1.90;;;1.73;;
813;SDS011;389;48.710;9.392;2023-03-23T09:13:52;2.23;;;1.93;;
813;SDS011;389;48.710;9.392;2023-03-23T09:16:18;3.73;;;2.00;;
813;SDS011;389;48.710;9.392;2023-03-23T09:18:44;2.20;;;1.97;;
813;SDS011;389;48.710;9.392;2023-03-23T09:21:11;2.73;;;2.30;;
813;SDS011;389;48.710;9.392;2023-03-23T09:23:37;2.90;;;2.23;;
813;SDS011;389;48.710;9.392;2023-03-23T09:26:03;2.17;;;1.90;;
813;SDS011;389;48.710;9.392;2023-03-23T09:28:29;2.47;;;2.27;;
813;SDS011;389;48.710;9.392;2023-03-23T09:30:56;2.83;;;1.63;;
813;SDS011;389;48.710;9.392;2023-03-23T09:33:22;2.13;;;1.87;;
813;SDS011;389;48.710;9.392;2023-03-23T09:35:48;3.77;;;2.30;;
813;SDS011;389;48.710;9.392;2023-03-23T09:38:14;2.20;;;2.10;;
813;SDS011;389;48.710;9.392;2023-03-23T09:40:47;1.80;;;1.40;;
813;SDS011;389;48.710;9.392;2023-03-23T09:49:24;2.63;;;1.87;;
813;SDS011;389;48.710;9.392;2023-03-23T09:52:03;2.37;;;1.80;;
813;SDS011;389;48.710;9.392;2023-03-23T09:54:42;3.80;;;1.90;;
813;SDS011;389;48.710;9.392;2023-03-23T09:57:19;2.77;;;1.97;;
813;SDS011;389;48.710;9.392;2023-03-23T10:02:48;2.43;;;2.23;;
813;SDS011;389;48.710;9.392;2023-03-23T10:08:20;1.83;;;1.73;;
813;SDS011;389;48.710;9.392;2023-03-23T10:19:20;2.00;;;1.90;;
813;SDS011;389;48.710;9.392;2023-03-23T10:21:52;3.10;;;1.97;;
813;SDS011;389;48.710;9.392;2023-03-23T10:24:30;1.57;;;1.47;;
813;SDS011;389;48.710;9.392;2023-03-23T10:27:19;2.70;;;1.67;;
813;SDS011;389;48.710;9.392;2023-03-23T10:29:52;1.73;;;1.53;;
813;SDS011;389;48.710;9.392;2023-03-23T10:32:35;1.97;;;1.70;;
813;SDS011;389;48.710;9.392;2023-03-23T10:35:07;1.47;;;1.37;;
813;SDS011;389;48.710;9.392;2023-03-23T10:37:41;3.63;;;1.60;;
813;SDS011;389;48.710;9.392;2023-03-23T10:40:19;1.60;;;1.50;;
813;SDS011;389;48.710;9.392;2023-03-23T10:42:49;1.57;;;1.47;;
813;SDS011;389;48.710;9.392;2023-03-23T10:45:17;1.87;;;1.30;;
813;SDS011;389;48.710;9.392;2023-03-23T10:47:58;3.10;;;2.03;;
813;SDS011;389;48.710;9.392;2023-03-23T10:50:34;2.00;;;1.70;;
813;SDS011;389;48.710;9.392;2023-03-23T10:53:03;1.97;;;1.80;;
813;SDS011;389;48.710;9.392;2023-03-23T10:55:41;1.63;;;1.50;;
813;SDS011;389;48.710;9.392;2023-03-23T10:58:10;1.43;;;1.33;;
813;SDS011;389;48.710;9.392;2023-03-23T11:00:42;3.07;;;1.37;;
813;SDS011;389;48.710;9.392;2023-03-23T11:05:42;2.33;;;1.77;;
813;SDS011;389;48.710;9.392;2023-03-23T11:08:12;2.30;;;1.70;;
813;SDS011;389;48.710;9.392;2023-03-23T11:10:50;1.80;;;1.70;;
813;SDS011;389;48.710;9.392;2023-03-23T11:13:21;1.63;;;1.53;;
813;SDS011;389;48.710;9.392;2023-03-23T11:15:50;2.00;;;1.90;;
813;SDS011;389;48.710;9.392;2023-03-23T11:18:20;3.03;;;1.83;;
813;SDS011;389;48.710;9.392;2023-03-23T11:20:49;1.70;;;1.60;;
813;SDS011;389;48.710;9.392;2023-03-23T11:25:55;3.00;;;1.83;;
813;SDS011;389;48.710;9.392;2023-03-23T11:28:32;2.00;;;1.90;;
813;SDS011;389;48.710;9.392;2023-03-23T11:31:07;2.10;;;2.00;;
813;SDS011;389;48.710;9.392;2023-03-23T11:33:47;2.00;;;1.90;;
813;SDS011;389;48.710;9.392;2023-03-23T11:36:16;1.90;;;1.57;;
813;SDS011;389;48.710;9.392;2023-03-23T11:38:43;2.03;;;1.83;;
813;SDS011;389;48.710;9.392;2023-03-23T11:41:12;1.97;;;1.87;;
813;SDS011;389;48.710;9.392;2023-03-23T11:43:46;2.20;;;1.90;;
813;SDS011;389;48.710;9.392;2023-03-23T11:48:47;2.20;;;2.00;;
813;SDS011;389;48.710;9.392;2023-03-23T11:51:41;1.87;;;1.77;;
813;SDS011;389;48.710;9.392;2023-03-23T11:56:55;1.90;;;1.80;;
813;SDS011;389;48.710;9.392;2023-03-23T12:01:57;2.40;;;1.97;;
813;SDS011;389;48.710;9.392;2023-03-23T12:13:12;1.97;;;1.80;;
813;SDS011;389;48.710;9.392;2023-03-23T12:27:35;2.27;;;2.00;;
813;SDS011;389;48.710;9.392;2023-03-23T12:38:58;2.10;;;1.90;;
813;SDS011;389;48.710;9.392;2023-03-23T12:44:43;2.00;;;1.90;;
813;SDS011;389;48.710;9.392;2023-03-23T12:52:56;2.30;;;2.10;;
813;SDS011;389;48.710;9.392;2023-03-23T12:55:50;1.97;;;1.80;;
813;SDS011;389;48.710;9.392;2023-03-23T12:58:30;1.73;;;1.63;;
813;SDS011;389;48.710;9.392;2023-03-23T13:04:01;1.80;;;1.70;;
813;SDS011;389;48.710;9.392;2023-03-23T13:06:35;1.80;;;1.53;;
813;SDS011;389;48.710;9.392;2023-03-23T13:09:29;3.10;;;2.00;;
813;SDS011;389;48.710;9.392;2023-03-23T13:12:04;2.10;;;1.67;;
813;SDS011;389;48.710;9.392;2023-03-23T13:20:40;1.77;;;1.63;;
813;SDS011;389;48.710;9.392;2023-03-23T13:23:14;1.97;;;1.77;;
813;SDS011;389;48.710;9.392;2023-03-23T13:26:02;2.07;;;1.93;;
813;SDS011;389;48.710;9.392;2023-03-23T13:28:34;1.93;;;1.80;;
813;SDS011;389;48.710;9.392;2023-03-23T13:31:40;2.07;;;1.67;;
813;SDS011;389;48.710;9.392;2023-03-23T13:34:28;2.43;;;2.23;;
813;SDS011;389;48.710;9.392;2023-03-23T13:42:32;3.10;;;2.20;;
813;SDS011;389;48.710;9.392;2023-03-23T13:47:46;2.43;;;2.00;;
813;SDS011;389;48.710;9.392;2023-03-23T13:52:50;1.83;;;1.70;;
813;SDS011;389;48.710;9.392;2023-03-23T13:58:29;2.10;;;1.90;;
813;SDS011;389;48.710;9.392;2023-03-23T14:01:19;4.13;;;2.23;;
813;SDS011;389;48.710;9.392;2023-03-23T14:03:59;2.33;;;2.10;;
813;SDS011;389;48.710;9.392;2023-03-23T14:06:34;3.53;;;1.90;;
813;SDS011;389;48.710;9.392;2023-03-23T14:12:00;3.60;;;1.67;;
813;SDS011;389;48.710;9.392;2023-03-23T14:14:45;3.20;;;2.10;;
813;SDS011;389;48.710;9.392;2023-03-23T14:17:37;1.80;;;1.70;;
813;SDS011;389;48.710;9.392;2023-03-23T14:20:20;1.90;;;1.80;;
813;SDS011;389;48.710;9.392;2023-03-23T14:23:02;2.30;;;2.10;;
813;SDS011;389;48.710;9.392;2023-03-23T14:25:32;2.40;;;2.23;;
813;SDS011;389;48.710;9.392;2023-03-23T14:28:01;3.00;;;2.10;;
813;SDS011;389;48.710;9.392;2023-03-23T14:30:34;2.23;;;2.03;;
813;SDS011;389;48.710;9.392;2023-03-23T14:33:03;3.03;;;2.13;;
813;SDS011;389;48.710;9.392;2023-03-23T14:35:32;2.57;;;2.30;;
813;SDS011;389;48.710;9.392;2023-03-23T14:38:06;2.50;;;2.30;;
813;SDS011;389;48.710;9.392;2023-03-23T14:40:43;3.40;;;2.30;;
813;SDS011;389;48.710;9.392;2023-03-23T14:43:13;2.23;;;2.03;;
813;SDS011;389;48.710;9.392;2023-03-23T14:45:52;4.23;;;2.40;;
813;SDS011;389;48.710;9.392;2023-03-23T14:48:22;3.77;;;2.50;;
813;SDS011;389;48.710;9.392;2023-03-23T14:50:49;2.60;;;2.40;;
813;SDS011;389;48.710;9.392;2023-03-23T14:53:38;2.77;;;2.37;;
813;SDS011;389;48.710;9.392;2023-03-23T14:56:12;2.37;;;2.17;;
813;SDS011;389;48.710;9.392;2023-03-23T14:58:51;2.50;;;2.23;;
813;SDS011;389;48.710;9.392;2023-03-23T15:01:27;2.60;;;2.23;;
813;SDS011;389;48.710;9.392;2023-03-23T15:06:25;2.40;;;2.20;;
813;SDS011;389;48.710;9.392;2023-03-23T15:08:56;4.60;;;2.50;;
813;SDS011;389;48.710;9.392;2023-03-23T15:11:32;3.83;;;2.20;;
813;SDS011;389;48.710;9.392;2023-03-23T15:14:10;5.20;;;2.77;;
813;SDS011;389;48.710;9.392;2023-03-23T15:16:46;2.73;;;2.20;;
813;SDS011;389;48.710;9.392;2023-03-23T15:19:21;2.60;;;2.40;;
813;SDS011;389;48.710;9.392;2023-03-23T15:21:57;3.40;;;2.37;;
813;SDS011;389;48.710;9.392;2023-03-23T15:24:50;2.37;;;2.17;;
813;SDS011;389;48.710;9.392;2023-03-23T15:29:54;2.30;;;2.10;;
813;SDS011;389;48.710;9.392;2023-03-23T15:32:23;2.30;;;2.10;;
813;SDS011;389;48.710;9.392;2023-03-23T15:34:50;2.00;;;1.90;;
813;SDS011;389;48.710;9.392;2023-03-23T15:37:21;2.60;;;2.10;;
813;SDS011;389;48.710;9.392;2023-03-23T15:39:55;2.30;;;2.10;;
813;SDS011;389;48.710;9.392;2023-03-23T15:42:23;2.83;;;2.60;;
813;SDS011;389;48.710;9.392;2023-03-23T15:44:56;2.30;;;2.10;;
813;SDS011;389;48.710;9.392;2023-03-23T15:47:22;3.10;;;2.80;;
813;SDS011;389;48.710;9.392;2023-03-23T15:50:02;2.40;;;2.20;;
813;SDS011;389;48.710;9.392;2023-03-23T15:52:39;2.80;;;2.33;;
813;SDS011;389;48.710;9.392;2023-03-23T15:55:19;3.00;;;2.00;;
813;SDS011;389;48.710;9.392;2023-03-23T15:57:45;2.20;;;2.00;;
813;SDS011;389;48.710;9.392;2023-03-23T16:00:12;2.87;;;2.67;;
813;SDS011;389;48.710;9.392;2023-03-23T16:02:38;2.53;;;2.27;;
813;SDS011;389;48.710;9.392;2023-03-23T16:05:04;2.70;;;2.30;;
813;SDS011;389;48.710;9.392;2023-03-23T16:07:30;3.10;;;2.80;;
813;SDS011;389;48.710;9.392;2023-03-23T16:09:56;3.83;;;2.50;;
813;SDS011;389;48.710;9.392;2023-03-23T16:12:22;3.03;;;2.70;;
813;SDS011;389;48.710;9.392;2023-03-23T16:14:47;2.30;;;2.10;;
813;SDS011;389;48.710;9.392;2023-03-23T16:17:14;3.50;;;2.33;;
813;SDS011;389;48.710;9.392;2023-03-23T16:19:43;4.60;;;2.27;;
813;SDS011;389;48.710;9.392;2023-03-23T16:22:09;3.17;;;2.57;;
813;SDS011;389;48.710;9.392;2023-03-23T16:24:35;3.43;;;2.40;;
813;SDS011;389;48.710;9.392;2023-03-23T16:27:00;2.43;;;2.10;;
813;SDS011;389;48.710;9.392;2023-03-23T16:29:26;4.17;;;2.60;;
813;SDS011;389;48.710;9.392;2023-03-23T16:31:52;3.67;;;2.37;;
813;SDS011;389;48.710;9.392;2023-03-23T16:34:18;2.17;;;2.07;;
813;SDS011;389;48.710;9.392;2023-03-23T16:36:43;2.73;;;2.33;;
813;SDS011;389;48.710;9.392;2023-03-23T16:39:10;2.80;;;2.30;;
813;SDS011;389;48.710;9.392;2023-03-23T16:41:36;1.80;;;1.70;;
813;SDS011;389;48.710;9.392;2023-03-23T16:44:02;2.80;;;2.50;;
813;SDS011;389;48.710;9.392;2023-03-23T16:46:28;2.37;;;2.20;;
813;SDS011;389;48.710;9.392;2023-03-23T16:48:54;2.77;;;2.50;;
813;SDS011;389;48.710;9.392;2023-03-23T16:51:20;2.13;;;1.97;;
813;SDS011;389;48.710;9.392;2023-03-23T16:53:49;2.33;;;2.17;;
813;SDS011;389;48.710;9.392;2023-03-23T16:56:15;3.07;;;2.43;;
813;SDS011;389;48.710;9.392;2023-03-23T16:58:40;3.20;;;1.80;;
813;SDS011;389;48.710;9.392;2023-03-23T17:01:06;2.53;;;2.07;;
813;SDS011;389;48.710;9.392;2023-03-23T17:03:32;2.33;;;2.17;;
813;SDS011;389;48.710;9.392;2023-03-23T17:05:58;3.03;;;2.17;;
813;SDS011;389;48.710;9.392;2023-03-23T17:08:25;3.37;;;2.50;;
813;SDS011;389;48.710;9.392;2023-03-23T17:10:51;4.07;;;2.50;;
813;SDS011;389;48.710;9.392;2023-03-23T17:13:17;2.57;;;2.10;;
813;SDS011;389;48.710;9.392;2023-03-23T17:15:43;2.60;;;2.40;;
813;SDS011;389;48.710;9.392;2023-03-23T17:18:11;8.97;;;5.80;;
813;SDS011;389;48.710;9.392;2023-03-23T17:20:37;22.43;;;12.70;;
813;SDS011;389;48.710;9.392;2023-03-23T17:23:03;35.77;;;18.00;;
813;SDS011;389;48.710;9.392;2023-03-23T17:25:29;12.70;;;7.70;;
813;SDS011;389;48.710;9.392;2023-03-23T17:27:56;11.10;;;7.33;;
813;SDS011;389;48.710;9.392;2023-03-23T17:30:22;5.23;;;2.90;;
813;SDS011;389;48.710;9.392;2023-03-23T17:32:48;36.37;;;16.47;;
813;SDS011;389;48.710;9.392;2023-03-23T17:35:14;9.37;;;5.70;;
813;SDS011;389;48.710;9.392;2023-03-23T17:37:40;3.10;;;2.30;;
813;SDS011;389;48.710;9.392;2023-03-23T17:40:07;3.80;;;2.40;;
813;SDS011;389;48.710;9.392;2023-03-23T17:42:35;2.63;;;2.43;;
813;SDS011;389;48.710;9.392;2023-03-23T17:45:02;2.93;;;2.63;;
813;SDS011;389;48.710;9.392;2023-03-23T17:47:29;5.80;;;4.67;;
813;SDS011;389;48.710;9.392;2023-03-23T17:49:54;17.60;;;15.63;;
813;SDS011;389;48.710;9.392;2023-03-23T17:52:20;5.70;;;4.80;;
813;SDS011;389;48.710;9.392;2023-03-23T17:54:47;4.83;;;4.30;;
813;SDS011;389;48.710;9.392;2023-03-23T17:57:12;30.20;;;23.67;;
813;SDS011;389;48.710;9.392;2023-03-23T17:59:39;28.97;;;22.43;;
813;SDS011;389;48.710;9.392;2023-03-23T18:02:05;7.80;;;6.27;;
813;SDS011;389;48.710;9.392;2023-03-23T18:04:30;8.27;;;6.63;;
813;SDS011;389;48.710;9.392;2023-03-23T18:06:57;10.50;;;9.40;;
813;SDS011;389;48.710;9.392;2023-03-23T18:09:22;8.30;;;7.60;;
813;SDS011;389;48.710;9.392;2023-03-23T18:11:49;5.50;;;4.80;;
813;SDS011;389;48.710;9.392;2023-03-23T18:14:18;3.77;;;3.47;;
813;SDS011;389;48.710;9.392;2023-03-23T18:16:46;3.57;;;2.90;;
813;SDS011;389;48.710;9.392;2023-03-23T18:19:12;4.70;;;3.80;;
813;SDS011;389;48.710;9.392;2023-03-23T18:21:37;3.80;;;3.50;;
813;SDS011;389;48.710;9.392;2023-03-23T18:24:03;5.40;;;4.40;;
813;SDS011;389;48.710;9.392;2023-03-23T18:26:30;5.63;;;4.90;;
813;SDS011;389;48.710;9.392;2023-03-23T18:28:56;4.83;;;4.03;;
813;SDS011;389;48.710;9.392;2023-03-23T18:31:21;3.80;;;3.43;;
813;SDS011;389;48.710;9.392;2023-03-23T18:33:52;8.87;;;4.27;;
813;SDS011;389;48.710;9.392;2023-03-23T18:36:21;6.93;;;4.40;;
813;SDS011;389;48.710;9.392;2023-03-23T18:38:54;6.40;;;5.80;;
813;SDS011;389;48.710;9.392;2023-03-23T18:41:22;5.10;;;4.70;;
813;SDS011;389;48.710;9.392;2023-03-23T18:43:48;5.23;;;4.50;;
813;SDS011;389;48.710;9.392;2023-03-23T18:46:15;6.73;;;5.03;;
813;SDS011;389;48.710;9.392;2023-03-23T18:48:40;5.60;;;5.00;;
813;SDS011;389;48.710;9.392;2023-03-23T18:51:08;7.57;;;6.27;;
813;SDS011;389;48.710;9.392;2023-03-23T18:53:33;5.17;;;4.40;;
813;SDS011;389;48.710;9.392;2023-03-23T18:56:06;4.50;;;3.80;;
813;SDS011;389;48.710;9.392;2023-03-23T18:58:40;4.47;;;3.90;;
813;SDS011;389;48.710;9.392;2023-03-23T19:01:08;4.50;;;4.10;;
813;SDS011;389;48.710;9.392;2023-03-23T19:03:41;5.57;;;3.37;;
813;SDS011;389;48.710;9.392;2023-03-23T19:06:40;9.70;;;4.73;;
813;SDS011;389;48.710;9.392;2023-03-23T19:09:03;6.90;;;5.20;;